createdAt,value
2023-10-16T00:01:11.005Z,9.01
2023-10-16T00:03:44.147Z,8.87
2023-10-16T00:06:13.964Z,8.84
2023-10-16T00:08:49.767Z,8.82
2023-10-16T00:11:19.715Z,8.82
2023-10-16T00:13:50.736Z,8.86
2023-10-16T00:16:20.090Z,8.79
2023-10-16T00:18:52.011Z,8.81
2023-10-16T00:21:20.215Z,8.72
2023-10-16T00:23:48.274Z,8.72
2023-10-16T00:26:21.411Z,8.78
2023-10-16T00:29:02.039Z,8.75
2023-10-16T00:31:34.182Z,8.90
2023-10-16T00:34:05.044Z,8.90
2023-10-16T00:36:33.348Z,9.02
2023-10-16T00:39:14.600Z,9.08
2023-10-16T00:41:43.449Z,9.12
2023-10-16T00:44:11.631Z,9.11
2023-10-16T00:46:40.573Z,9.10
2023-10-16T00:49:10.914Z,9.17
2023-10-16T00:51:42.042Z,9.26
2023-10-16T00:54:17.973Z,9.33
2023-10-16T00:56:46.491Z,9.40
2023-10-16T00:59:17.230Z,9.42
2023-10-16T01:01:46.305Z,9.42
2023-10-16T01:04:17.764Z,9.39
2023-10-16T01:06:46.479Z,9.39
2023-10-16T01:09:23.796Z,9.38
2023-10-16T01:11:52.499Z,9.36
2023-10-16T01:14:21.156Z,9.37
2023-10-16T01:16:49.986Z,9.41
2023-10-16T01:19:21.440Z,9.38
2023-10-16T01:21:50.304Z,9.34
2023-10-16T01:24:21.201Z,9.27
2023-10-16T01:26:50.839Z,9.23
2023-10-16T01:29:18.900Z,9.19
2023-10-16T01:31:49.442Z,9.18
2023-10-16T01:34:17.544Z,9.12
2023-10-16T01:36:47.678Z,9.06
2023-10-16T01:39:30.051Z,9.02
2023-10-16T01:42:03.692Z,9.05
2023-10-16T01:44:32.214Z,9.17
2023-10-16T01:47:04.554Z,9.23
2023-10-16T01:49:32.535Z,9.30
2023-10-16T01:52:00.474Z,9.42
2023-10-16T01:54:31.202Z,9.52
2023-10-16T01:57:01.154Z,9.43
2023-10-16T01:59:29.104Z,9.45
2023-10-16T02:01:57.008Z,9.50
2023-10-16T02:04:25.146Z,9.49
2023-10-16T02:06:53.481Z,9.50
2023-10-16T02:09:25.082Z,9.48
2023-10-16T02:11:53.160Z,9.52
2023-10-16T02:14:22.537Z,9.41
2023-10-16T02:16:53.208Z,9.48
2023-10-16T02:19:22.117Z,9.50
2023-10-16T02:21:51.510Z,9.37
2023-10-16T02:24:19.825Z,9.29
2023-10-16T02:26:57.313Z,9.26
2023-10-16T02:29:30.011Z,9.09
2023-10-16T02:31:59.626Z,9.10
2023-10-16T02:34:27.761Z,9.12
2023-10-16T02:36:56.516Z,9.07
2023-10-16T02:39:37.777Z,9.05
2023-10-16T02:42:10.262Z,9.09
2023-10-16T02:44:44.546Z,9.13
2023-10-16T02:47:14.799Z,9.13
2023-10-16T02:49:49.128Z,9.18
2023-10-16T02:52:19.031Z,9.31
2023-10-16T02:54:49.068Z,9.37
2023-10-16T02:57:17.417Z,9.41
2023-10-16T02:59:47.216Z,9.38
2023-10-16T03:02:19.381Z,9.30
2023-10-16T03:04:52.566Z,9.30
2023-10-16T03:07:23.740Z,9.28
2023-10-16T03:09:52.929Z,9.24
2023-10-16T03:12:22.637Z,9.30
2023-10-16T03:14:58.448Z,9.42
2023-10-16T03:17:35.803Z,9.47
2023-10-16T03:20:10.655Z,9.53
2023-10-16T03:22:38.932Z,9.56
2023-10-16T03:25:25.755Z,9.65
2023-10-16T03:27:56.519Z,9.62
2023-10-16T03:30:29.622Z,9.70
2023-10-16T03:32:59.605Z,9.74
2023-10-16T03:35:31.561Z,9.79
2023-10-16T03:38:11.528Z,9.76
2023-10-16T03:40:39.621Z,9.70
2023-10-16T03:43:09.665Z,9.66
2023-10-16T03:45:42.456Z,9.57
2023-10-16T03:48:12.055Z,9.44
2023-10-16T03:50:40.874Z,9.31
2023-10-16T03:53:09.955Z,9.33
2023-10-16T03:55:45.853Z,9.32
2023-10-16T03:58:14.377Z,9.41
2023-10-16T04:00:54.382Z,9.38
2023-10-16T04:03:23.631Z,9.45
2023-10-16T04:05:52.814Z,9.52
2023-10-16T04:08:22.933Z,9.51
2023-10-16T04:10:51.018Z,9.59
2023-10-16T04:13:22.244Z,9.62
2023-10-16T04:16:12.464Z,9.71
2023-10-16T04:18:41.409Z,9.76
2023-10-16T04:21:27.760Z,9.67
2023-10-16T04:23:55.779Z,9.61
2023-10-16T04:26:50.938Z,9.63
2023-10-16T04:29:29.707Z,9.79
2023-10-16T04:31:59.331Z,9.83
2023-10-16T04:34:34.399Z,9.85
2023-10-16T04:37:21.767Z,9.87
2023-10-16T04:40:08.431Z,9.95
2023-10-16T04:43:08.745Z,9.93
2023-10-16T04:46:01.027Z,9.93
2023-10-16T04:48:49.676Z,9.98
2023-10-16T04:54:14.544Z,9.95
2023-10-16T04:57:25.817Z,10.05
2023-10-16T05:00:02.082Z,10.09
2023-10-16T05:02:41.564Z,10.11
2023-10-16T05:05:28.715Z,10.19
2023-10-16T05:08:08.420Z,10.16
2023-10-16T05:11:13.270Z,10.17
2023-10-16T05:13:56.598Z,10.24
2023-10-16T05:16:37.193Z,10.26
2023-10-16T05:19:05.843Z,10.28
2023-10-16T05:22:03.651Z,10.35
2023-10-16T05:24:49.179Z,10.35
2023-10-16T05:27:34.685Z,10.30
2023-10-16T05:30:20.188Z,10.34
2023-10-16T05:33:05.736Z,10.36
2023-10-16T05:35:51.283Z,10.36
2023-10-16T05:38:38.376Z,10.36
2023-10-16T05:41:24.607Z,10.41
2023-10-16T05:44:10.055Z,10.36
2023-10-16T05:46:55.298Z,10.34
2023-10-16T05:49:41.324Z,10.36
2023-10-16T05:52:27.914Z,10.48
2023-10-16T05:55:15.096Z,10.46
2023-10-16T05:58:03.027Z,10.54
2023-10-16T06:00:49.000Z,10.50
2023-10-16T06:03:34.628Z,10.54
2023-10-16T06:06:20.256Z,10.56
2023-10-16T06:09:05.982Z,10.54
2023-10-16T06:11:52.966Z,10.50
2023-10-16T06:14:21.811Z,10.49
2023-10-16T06:16:51.974Z,10.55
2023-10-16T06:19:19.981Z,10.60
2023-10-16T06:21:51.353Z,10.61
2023-10-16T06:24:34.331Z,10.69
2023-10-16T06:27:10.319Z,10.71
2023-10-16T06:29:48.362Z,10.82
2023-10-16T06:32:20.573Z,10.81
2023-10-16T06:34:49.341Z,10.81
2023-10-16T06:37:19.221Z,10.89
2023-10-16T06:39:48.007Z,10.81
2023-10-16T06:42:20.178Z,10.89
2023-10-16T06:44:51.565Z,10.94
2023-10-16T06:47:25.341Z,11.06
2023-10-16T06:49:53.406Z,11.12
2023-10-16T06:52:21.360Z,11.17
2023-10-16T06:54:49.925Z,11.24
2023-10-16T06:57:20.731Z,11.26
2023-10-16T06:59:52.073Z,11.33
2023-10-16T07:02:22.079Z,11.29
2023-10-16T07:04:50.349Z,11.41
2023-10-16T07:07:23.040Z,11.43
2023-10-16T07:09:51.251Z,11.45
2023-10-16T07:12:21.182Z,11.52
2023-10-16T07:14:57.585Z,11.69
2023-10-16T07:17:27.049Z,11.85
2023-10-16T07:20:00.693Z,11.95
2023-10-16T07:22:33.170Z,12.04
2023-10-16T07:25:27.139Z,11.98
2023-10-16T07:27:59.662Z,12.02
2023-10-16T07:30:29.023Z,12.08
2023-10-16T07:32:57.247Z,12.14
2023-10-16T07:35:25.370Z,12.07
2023-10-16T07:37:54.742Z,12.04
2023-10-16T07:40:24.956Z,11.94
2023-10-16T07:42:54.250Z,12.01
2023-10-16T07:45:23.772Z,12.15
2023-10-16T07:47:52.661Z,12.33
2023-10-16T07:50:21.088Z,12.45
2023-10-16T07:52:50.014Z,12.47
2023-10-16T07:55:20.675Z,12.57
2023-10-16T07:57:50.068Z,12.59
2023-10-16T08:00:27.009Z,12.69
2023-10-16T08:03:06.642Z,12.83
2023-10-16T08:05:35.041Z,12.98
2023-10-16T08:08:13.235Z,13.10
2023-10-16T08:10:43.946Z,13.03
2023-10-16T08:13:15.380Z,13.11
2023-10-16T08:15:50.761Z,13.23
2023-10-16T08:18:21.102Z,13.33
2023-10-16T08:21:01.754Z,13.26
2023-10-16T08:23:35.443Z,13.12
2023-10-16T08:26:15.647Z,13.10
2023-10-16T08:28:46.805Z,13.19
2023-10-16T08:31:25.349Z,13.28
2023-10-16T08:33:56.705Z,13.29
2023-10-16T08:36:25.117Z,13.27
2023-10-16T08:38:56.554Z,13.44
2023-10-16T08:41:43.145Z,13.65
2023-10-16T08:44:16.124Z,13.55
2023-10-16T08:46:53.842Z,13.51
2023-10-16T08:49:26.476Z,13.50
2023-10-16T08:51:56.236Z,13.52
2023-10-16T08:54:54.728Z,13.58
2023-10-16T08:57:23.551Z,13.64
2023-10-16T08:59:52.061Z,13.60
2023-10-16T09:02:23.062Z,13.81
2023-10-16T09:04:55.302Z,13.75
2023-10-16T09:07:25.645Z,13.70
2023-10-16T09:09:56.781Z,13.51
2023-10-16T09:12:28.159Z,13.79
2023-10-16T09:15:06.546Z,13.85
2023-10-16T09:17:36.416Z,13.96
2023-10-16T09:20:14.474Z,14.08
2023-10-16T09:22:46.838Z,13.96
2023-10-16T09:27:50.628Z,13.98
2023-10-16T09:30:22.061Z,13.98
2023-10-16T09:32:52.670Z,14.23
2023-10-16T09:35:31.542Z,14.35
2023-10-16T09:38:13.194Z,14.41
2023-10-16T09:40:45.427Z,14.37
2023-10-16T09:43:25.480Z,14.56
2023-10-16T09:46:17.357Z,14.53
2023-10-16T09:48:48.829Z,14.48
2023-10-16T09:51:18.368Z,14.34
2023-10-16T09:53:46.396Z,14.18
2023-10-16T09:56:18.682Z,14.18
2023-10-16T09:58:52.449Z,14.23
2023-10-16T10:01:30.542Z,14.22
2023-10-16T10:04:00.713Z,14.24
2023-10-16T10:06:36.374Z,14.14
2023-10-16T10:09:32.694Z,14.09
2023-10-16T10:12:14.537Z,14.00
2023-10-16T10:14:49.955Z,13.93
2023-10-16T10:17:22.171Z,14.07
2023-10-16T10:19:56.276Z,14.29
2023-10-16T10:22:28.706Z,14.57
2023-10-16T10:25:23.844Z,14.53
2023-10-16T10:27:55.411Z,14.65
2023-10-16T10:30:27.109Z,14.70
2023-10-16T10:32:57.161Z,14.72
2023-10-16T10:35:29.021Z,14.81
2023-10-16T10:38:18.573Z,14.68
2023-10-16T10:41:15.975Z,14.45
2023-10-16T10:43:49.216Z,14.20
2023-10-16T10:46:26.693Z,14.07
2023-10-16T10:48:58.554Z,14.15
2023-10-16T10:51:33.470Z,14.11
2023-10-16T10:54:05.080Z,14.16
2023-10-16T10:56:42.923Z,14.32
2023-10-16T10:59:12.080Z,14.42
2023-10-16T11:01:51.759Z,14.24
2023-10-16T11:04:22.492Z,14.24
2023-10-16T11:06:53.858Z,14.21
2023-10-16T11:09:28.223Z,14.17
2023-10-16T11:11:56.308Z,13.99
2023-10-16T11:14:35.854Z,14.16
2023-10-16T11:17:06.787Z,14.19
2023-10-16T11:19:46.303Z,14.12
2023-10-16T11:22:20.237Z,14.03
2023-10-16T11:24:50.737Z,13.96
2023-10-16T11:27:18.953Z,13.92
2023-10-16T11:29:47.532Z,13.87
2023-10-16T11:32:17.134Z,14.05
2023-10-16T11:34:45.996Z,14.27
2023-10-16T11:37:15.971Z,14.38
2023-10-16T11:39:48.605Z,14.57
2023-10-16T11:42:18.508Z,14.72
2023-10-16T11:44:46.430Z,14.63
2023-10-16T11:47:19.646Z,14.55
2023-10-16T11:49:54.936Z,14.57
2023-10-16T11:52:24.380Z,14.75
2023-10-16T11:54:57.805Z,14.78
2023-10-16T11:57:28.602Z,14.59
2023-10-16T11:59:57.498Z,14.32
2023-10-16T12:02:35.584Z,14.13
2023-10-16T12:05:07.184Z,14.09
2023-10-16T12:07:44.400Z,13.98
2023-10-16T12:10:16.682Z,13.93
2023-10-16T12:12:46.991Z,13.95
2023-10-16T12:15:15.043Z,14.02
2023-10-16T12:17:45.298Z,14.11
2023-10-16T12:20:14.197Z,14.25
2023-10-16T12:22:42.269Z,14.30
2023-10-16T12:25:11.100Z,14.26
2023-10-16T12:27:39.299Z,14.46
2023-10-16T12:30:14.642Z,14.45
2023-10-16T12:32:43.229Z,14.41
2023-10-16T12:35:13.274Z,14.41
2023-10-16T12:37:41.944Z,14.49
2023-10-16T12:40:25.627Z,14.45
2023-10-16T12:42:56.709Z,14.30
2023-10-16T12:45:27.350Z,14.28
2023-10-16T12:47:58.828Z,14.28
2023-10-16T12:50:28.909Z,14.57
2023-10-16T12:52:58.254Z,14.72
2023-10-16T12:55:26.468Z,14.86
2023-10-16T12:57:56.056Z,15.01
2023-10-16T13:00:25.039Z,15.03
2023-10-16T13:02:56.393Z,14.96
2023-10-16T13:05:25.992Z,14.77
2023-10-16T13:07:57.900Z,14.92
2023-10-16T13:10:28.445Z,14.78
2023-10-16T13:12:58.049Z,14.76
2023-10-16T13:15:26.956Z,14.62
2023-10-16T13:17:56.560Z,14.52
2023-10-16T13:20:28.853Z,14.45
2023-10-16T13:22:59.063Z,14.37
2023-10-16T13:25:32.406Z,14.29
2023-10-16T13:28:01.812Z,14.36
2023-10-16T13:30:32.662Z,14.37
2023-10-16T13:33:08.684Z,14.32
2023-10-16T13:35:40.603Z,14.27
2023-10-16T13:38:10.324Z,14.42
2023-10-16T13:40:39.830Z,14.40
2023-10-16T13:43:12.195Z,14.60
2023-10-16T13:45:41.622Z,14.69
2023-10-16T13:48:12.373Z,14.62
2023-10-16T13:50:42.063Z,14.43
2023-10-16T13:53:12.330Z,14.52
2023-10-16T13:55:41.176Z,14.49
2023-10-16T13:58:10.160Z,14.40
2023-10-16T14:00:39.698Z,14.32
2023-10-16T14:03:10.074Z,14.31
2023-10-16T14:05:45.929Z,14.20
2023-10-16T14:08:16.163Z,14.18
2023-10-16T14:10:50.944Z,13.97
2023-10-16T14:13:22.876Z,13.93
2023-10-16T14:15:52.315Z,13.89
2023-10-16T14:18:26.146Z,13.96
2023-10-16T14:20:57.853Z,13.79
2023-10-16T14:23:30.174Z,13.81
2023-10-16T14:26:00.491Z,13.79
2023-10-16T14:28:33.591Z,13.77
2023-10-16T14:31:03.046Z,13.80
2023-10-16T14:33:32.044Z,13.68
2023-10-16T14:36:02.851Z,13.68
2023-10-16T14:38:31.910Z,13.63
2023-10-16T14:41:05.757Z,13.49
2023-10-16T14:43:36.175Z,13.42
2023-10-16T14:46:05.231Z,13.44
2023-10-16T14:48:33.801Z,13.49
2023-10-16T14:51:06.174Z,13.46
2023-10-16T14:53:34.402Z,13.45
2023-10-16T14:56:02.376Z,13.62
2023-10-16T14:59:04.902Z,13.68
2023-10-16T15:01:21.018Z,13.69
2023-10-16T15:03:52.359Z,13.67
2023-10-16T15:06:22.024Z,13.71
2023-10-16T15:08:50.012Z,13.68
2023-10-16T15:11:21.729Z,13.72
2023-10-16T15:13:49.960Z,13.77
2023-10-16T15:16:18.091Z,13.79
2023-10-16T15:18:46.499Z,13.77
2023-10-16T15:21:14.398Z,13.74
2023-10-16T15:23:43.939Z,13.64
2023-10-16T15:26:11.950Z,13.71
2023-10-16T15:31:14.605Z,13.61
2023-10-16T15:33:45.002Z,13.49
2023-10-16T15:36:14.333Z,13.45
2023-10-16T15:38:44.899Z,13.42
2023-10-16T15:41:14.490Z,13.41
2023-10-16T15:43:48.197Z,13.31
2023-10-16T15:46:26.778Z,13.21
2023-10-16T15:48:56.397Z,13.08
2023-10-16T15:51:26.062Z,13.05
2023-10-16T15:53:56.089Z,12.99
2023-10-16T15:56:24.201Z,12.99
2023-10-16T15:58:52.598Z,12.88
2023-10-16T16:01:21.320Z,12.88
2023-10-16T16:03:49.772Z,12.86
2023-10-16T16:06:19.796Z,12.83
2023-10-16T16:08:48.034Z,12.70
2023-10-16T16:11:20.523Z,12.70
2023-10-16T16:13:50.805Z,12.69
2023-10-16T16:16:21.775Z,12.67
2023-10-16T16:18:50.016Z,12.63
2023-10-16T16:21:17.945Z,12.61
2023-10-16T16:23:45.847Z,12.60
2023-10-16T16:26:14.218Z,12.57
2023-10-16T16:28:47.362Z,12.49
2023-10-16T16:31:17.249Z,12.44
2023-10-16T16:33:45.743Z,12.36
2023-10-16T16:36:15.770Z,12.32
2023-10-16T16:38:44.306Z,12.31
2023-10-16T16:41:13.364Z,12.28
2023-10-16T16:43:43.438Z,12.29
2023-10-16T16:46:11.341Z,12.28
2023-10-16T16:48:39.405Z,12.31
2023-10-16T16:51:08.043Z,12.32
2023-10-16T16:53:36.872Z,12.32
2023-10-16T16:56:05.537Z,12.34
2023-10-16T16:58:34.120Z,12.34
2023-10-16T17:01:03.394Z,12.28
2023-10-16T17:03:31.504Z,12.16
2023-10-16T17:05:59.698Z,12.12
2023-10-16T17:08:27.591Z,12.00
2023-10-16T17:10:56.769Z,11.97
2023-10-16T17:13:25.380Z,11.83
2023-10-16T17:15:53.296Z,11.79
2023-10-16T17:18:22.653Z,11.81
2023-10-16T17:20:50.736Z,11.81
2023-10-16T17:23:18.635Z,11.90
2023-10-16T17:25:46.996Z,11.97
2023-10-16T17:28:18.066Z,12.01
2023-10-16T17:30:47.150Z,12.08
2023-10-16T17:33:15.572Z,12.13
2023-10-16T17:35:45.782Z,12.21
2023-10-16T17:38:14.245Z,12.26
2023-10-16T17:40:42.496Z,12.29
2023-10-16T17:43:10.884Z,12.32
2023-10-16T17:45:38.932Z,12.38
2023-10-16T17:48:08.540Z,12.42
2023-10-16T17:50:36.678Z,12.45
2023-10-16T17:53:12.273Z,12.47
2023-10-16T17:55:41.393Z,12.45
2023-10-16T17:58:09.387Z,12.48
2023-10-16T18:00:41.240Z,12.53
2023-10-16T18:03:09.457Z,12.54
2023-10-16T18:05:37.423Z,12.52
2023-10-16T18:08:10.487Z,12.55
2023-10-16T18:10:42.577Z,12.53
2023-10-16T18:13:10.572Z,12.49
2023-10-16T18:15:38.853Z,12.47
2023-10-16T18:18:07.709Z,12.43
2023-10-16T18:20:36.908Z,12.39
2023-10-16T18:23:07.010Z,12.37
2023-10-16T18:25:34.988Z,12.28
2023-10-16T18:28:02.998Z,12.10
2023-10-16T18:30:31.374Z,12.05
2023-10-16T18:32:59.801Z,12.03
2023-10-16T18:35:27.969Z,12.04
2023-10-16T18:37:55.947Z,12.04
2023-10-16T18:40:25.353Z,12.03
2023-10-16T18:42:53.438Z,11.95
2023-10-16T18:45:22.104Z,11.90
2023-10-16T18:47:51.457Z,11.70
2023-10-16T18:50:19.922Z,11.66
2023-10-16T18:52:48.813Z,11.57
2023-10-16T18:55:16.917Z,11.57
2023-10-16T18:57:46.330Z,11.50
2023-10-16T19:00:16.779Z,11.44
2023-10-16T19:02:45.825Z,11.46
2023-10-16T19:05:16.676Z,11.47
2023-10-16T19:07:45.285Z,11.44
2023-10-16T19:10:13.585Z,11.35
2023-10-16T19:12:42.610Z,11.31
2023-10-16T19:15:13.268Z,11.29
2023-10-16T19:17:41.158Z,11.28
2023-10-16T19:20:10.693Z,11.25
2023-10-16T19:22:38.857Z,11.23
2023-10-16T19:25:12.147Z,11.17
2023-10-16T19:27:40.632Z,11.11
2023-10-16T19:30:10.738Z,11.11
2023-10-16T19:32:45.856Z,11.08
2023-10-16T19:35:15.976Z,11.06
2023-10-16T19:37:44.141Z,11.03
2023-10-16T19:40:16.641Z,10.97
2023-10-16T19:42:45.543Z,10.96
2023-10-16T19:45:18.972Z,10.92
2023-10-16T19:47:50.221Z,10.88
2023-10-16T19:50:18.752Z,10.83
2023-10-16T19:52:47.845Z,10.81
2023-10-16T19:55:20.597Z,10.79
2023-10-16T19:57:49.117Z,10.77
2023-10-16T20:00:22.745Z,10.75
2023-10-16T20:02:53.688Z,10.63
2023-10-16T20:05:21.872Z,10.65
2023-10-16T20:07:53.361Z,10.62
2023-10-16T20:10:21.668Z,10.59
2023-10-16T20:12:51.724Z,10.60
2023-10-16T20:15:21.736Z,10.58
2023-10-16T20:17:52.176Z,10.54
2023-10-16T20:20:31.547Z,10.47
2023-10-16T20:23:03.169Z,10.40
2023-10-16T20:25:32.221Z,10.39
2023-10-16T20:28:01.208Z,10.40
2023-10-16T20:30:29.913Z,10.35
2023-10-16T20:33:00.283Z,10.30
2023-10-16T20:35:29.885Z,10.27
2023-10-16T20:37:58.019Z,10.27
2023-10-16T20:40:27.642Z,10.24
2023-10-16T20:42:57.424Z,10.26
2023-10-16T20:45:26.734Z,10.24
2023-10-16T20:47:57.580Z,10.19
2023-10-16T20:50:28.446Z,10.23
2023-10-16T20:52:57.017Z,10.26
2023-10-16T20:55:25.657Z,10.35
2023-10-16T20:57:55.652Z,10.47
2023-10-16T21:00:28.897Z,10.58
2023-10-16T21:02:59.714Z,10.59
2023-10-16T21:05:30.959Z,10.55
2023-10-16T21:08:00.117Z,10.66
2023-10-16T21:10:29.637Z,10.72
2023-10-16T21:12:58.775Z,10.72
2023-10-16T21:15:26.731Z,10.68
2023-10-16T21:17:55.626Z,10.72
2023-10-16T21:20:23.994Z,10.71
2023-10-16T21:22:55.281Z,10.67
2023-10-16T21:25:25.732Z,10.68
2023-10-16T21:27:55.053Z,10.62
2023-10-16T21:30:24.130Z,10.64
2023-10-16T21:32:53.803Z,10.56
2023-10-16T21:35:24.201Z,10.46
2023-10-16T21:37:54.069Z,10.51
2023-10-16T21:40:23.925Z,10.43
2023-10-16T21:42:52.955Z,10.45
2023-10-16T21:45:23.637Z,10.42
2023-10-16T21:47:53.090Z,10.40
2023-10-16T21:50:21.407Z,10.36
2023-10-16T21:52:49.256Z,10.29
2023-10-16T21:55:18.713Z,10.30
2023-10-16T21:57:46.678Z,10.27
2023-10-16T22:00:29.166Z,10.25
2023-10-16T22:02:57.634Z,10.25
2023-10-16T22:05:25.736Z,10.24
2023-10-16T22:07:53.741Z,10.25
2023-10-16T22:10:23.216Z,10.25
2023-10-16T22:12:51.261Z,10.22
2023-10-16T22:15:20.617Z,10.22
2023-10-16T22:17:50.432Z,10.20
2023-10-16T22:20:21.546Z,10.18
2023-10-16T22:22:49.559Z,10.20
2023-10-16T22:25:17.767Z,10.19
2023-10-16T22:27:48.451Z,10.21
2023-10-16T22:30:16.891Z,10.19
2023-10-16T22:32:45.519Z,10.22
2023-10-16T22:35:13.653Z,10.26
2023-10-16T22:37:43.399Z,10.22
2023-10-16T22:40:15.912Z,10.32
2023-10-16T22:42:44.832Z,10.37
2023-10-16T22:45:16.630Z,10.37
2023-10-16T22:47:45.582Z,10.40
2023-10-16T22:50:13.681Z,10.39
2023-10-16T22:52:41.780Z,10.38
2023-10-16T22:55:11.215Z,10.32
2023-10-16T22:57:39.250Z,10.29
2023-10-16T23:00:13.503Z,10.29
2023-10-16T23:02:43.307Z,10.23
2023-10-16T23:05:15.346Z,10.20
2023-10-16T23:07:45.043Z,10.17
2023-10-16T23:10:14.715Z,10.13
2023-10-16T23:12:45.030Z,10.14
2023-10-16T23:15:20.422Z,10.14
2023-10-16T23:17:51.754Z,10.16
2023-10-16T23:20:25.698Z,10.22
2023-10-16T23:22:54.775Z,10.29
2023-10-16T23:25:23.348Z,10.32
2023-10-16T23:27:53.351Z,10.36
2023-10-16T23:30:26.850Z,10.38
2023-10-16T23:32:56.664Z,10.37
2023-10-16T23:35:26.577Z,10.35
2023-10-16T23:37:54.675Z,10.39
2023-10-16T23:40:40.861Z,10.44
2023-10-16T23:43:12.199Z,10.42
2023-10-16T23:45:41.278Z,10.42
2023-10-16T23:48:20.412Z,10.47
2023-10-16T23:50:51.937Z,10.42
2023-10-16T23:53:32.965Z,10.51
2023-10-16T23:56:11.101Z,10.49
2023-10-16T23:58:43.851Z,10.51
